Rolls, Texas
Current Conditions -  °F | °C
As of 9:58 AM on Saturday 25 Oct 2014 (Local Time) from KDYS Reporting Station
Clear Clear  
Wind Chill: 76°   Ceiling: Unl
Heat Index: 78°   Visibility: 10mi
Dew Point: 59°   Wind: 9mph
Humidity: 55%   Direction: 240°WSW
Pressure: 30.17"   Gusts: NA
Location:  33.1968°N, 99.9025°W
Report Text: KDYS 251458Z AUTO 24008KT 10SM CLR 25/15 A3017 RMK AO2 SLP182 T02470152 52016 $
Loading
Personal Weather Stations






























Interactive Weather Map New forecast layout! Learn more

10-Day Weather Forecast

Advertisements
Track Severe Weather on mobile